Dades meteomassalio
Diari Summary for Juny 25, 2017 Units:  Metric    English   Both
« Previous Day
Next Day »
Diari Semanal Mensual Anual Personalitzat
  Maxima: Minima: Mijana:
Temperatura: -17.8 °C -5.7 °C -3.2 °C
Rosada: -17.8 °C -9.8 °C -8.7 °C
Humitat: Humidity % 43 % 55 %
Velocitat del vent: 0 km/h 0 km/h 14 km/h
Racha vent: 0 km/h - -
Vent:- - South
Pressio: 0 hPa 34212.1 hPa -
Pluja: 0 mm    
Historical Graphs
 
 
Tabular Data for Juny 25, 2017
Time Temperature Dew Point Pressure Wind Wind Speed Wind Gust Humidity Rainfall Rate (Hourly) solar Conditions
-17.8 °C -17.8 °C 0 hPa Calm     Humidity % 0 mm SolarRadiationWatts/m^2 W/m2 Conditions
00:00 -3.2 °C -7.8 °C 34371.3 hPa NW 15.6 km/h 15.6 km/h 60 % 0 mm 0.0 W/m2 CLR
00:05 -3.1 °C -8.4 °C 34384.8 hPa NW 20.9 km/h 20.9 km/h 56 % 0 mm 0.0 W/m2 CLR
00:10 -3 °C -8.9 °C 34384.8 hPa WNW 20.9 km/h 20.9 km/h 52 % 0 mm 0.0 W/m2 CLR
00:15 -3 °C -9.1 °C 34384.8 hPa WNW 20.9 km/h 20.9 km/h 51 % 0 mm 0.0 W/m2 CLR
00:16 -3 °C -9.1 °C 34384.8 hPa West 20.9 km/h 20.9 km/h 51 % 0 mm 0.0 W/m2 CLR
00:21 -3.1 °C -9.3 °C 34384.8 hPa NW 38.8 km/h 38.8 km/h 50 % 0 mm 0.0 W/m2 CLR
00:26 -3.1 °C -9.6 °C 34395 hPa West 32.8 km/h 32.8 km/h 49 % 0 mm 0.0 W/m2 CLR
00:31 -3.2 °C -9.4 °C 34395 hPa NW 3.1 km/h   50 % 0 mm 0.0 W/m2 CLR
00:36 -3.2 °C -9.5 °C 34395 hPa NW 10.3 km/h 10.3 km/h 50 % 0 mm 0.0 W/m2 CLR
00:41 -3.3 °C -9.6 °C 34395 hPa WSW 20.9 km/h 20.9 km/h 50 % 0 mm 0.0 W/m2 CLR
00:46 -3.4 °C -9.7 °C 34395 hPa WSW 11.9 km/h 11.9 km/h 50 % 0 mm 0.0 W/m2 CLR
00:51 -3.5 °C -9.7 °C 34395 hPa Calm   2.1 km/h 50 % 0 mm 0.0 W/m2 CLR
00:56 -3.6 °C -9.8 °C 34395 hPa Calm     50 % 0 mm 0.0 W/m2 CLR
01:01 -3.6 °C -9.6 °C 34395 hPa West 15.6 km/h 15.6 km/h 51 % 0 mm 0.0 W/m2 CLR
01:06 -3.6 °C -9.7 °C 34405.1 hPa West 29.8 km/h 29.8 km/h 51 % 0 mm 0.0 W/m2 CLR
01:11 -3.7 °C -9.7 °C 34405.1 hPa WNW 15 km/h 15 km/h 51 % 0 mm 0.0 W/m2 CLR
01:16 -3.7 °C -9.8 °C 34405.1 hPa West 20.9 km/h 20.9 km/h 51 % 0 mm 0.0 W/m2 CLR
01:21 -3.7 °C -9.8 °C 34405.1 hPa WSW 18.2 km/h 18.2 km/h 51 % 0 mm 0.0 W/m2 CLR
01:26 -3.8 °C -9.6 °C 34405.1 hPa West 25.9 km/h 25.9 km/h 52 % 0 mm 0.0 W/m2 CLR
01:31 -3.8 °C -9.7 °C 34405.1 hPa NW 20.9 km/h 20.9 km/h 52 % 0 mm 0.0 W/m2 CLR
01:36 -3.9 °C -9.6 °C 34405.1 hPa WNW 15 km/h 15 km/h 53 % 0 mm 0.0 W/m2 CLR
01:41 -4 °C -9.7 °C 34405.1 hPa WNW 17.9 km/h 17.9 km/h 53 % 0 mm 0.0 W/m2 CLR
01:46 -4 °C -9.7 °C 34405.1 hPa WNW 23.8 km/h 23.8 km/h 53 % 0 mm 0.0 W/m2 CLR
01:51 -4.1 °C -9.6 °C 34405.1 hPa WNW 23.8 km/h 23.8 km/h 54 % 0 mm 0.0 W/m2 CLR
01:56 -4.2 °C -9.7 °C 34405.1 hPa West 9 km/h 9 km/h 54 % 0 mm 0.0 W/m2 CLR
02:01 -4.3 °C -9.6 °C 34418.7 hPa West 23.3 km/h 23.3 km/h 55 % 0 mm 0.0 W/m2 CLR
02:06 -4.3 °C -9.6 °C 34418.7 hPa West 17.9 km/h 17.9 km/h 55 % 0 mm 0.0 W/m2 CLR
02:11 -4.4 °C -9.6 °C 34418.7 hPa West 20.9 km/h 20.9 km/h 56 % 0 mm 0.0 W/m2 CLR
02:16 -4.4 °C -9.6 °C 34418.7 hPa SW 11.9 km/h 11.9 km/h 56 % 0 mm 0.0 W/m2 CLR
02:21 -4.5 °C -9.7 °C 34418.7 hPa WSW 17.9 km/h 17.9 km/h 56 % 0 mm 0.0 W/m2 CLR
02:26 -4.6 °C -9.6 °C 34418.7 hPa West 20.9 km/h 20.9 km/h 57 % 0 mm 0.0 W/m2 CLR
02:31 -4.6 °C -9.6 °C 34418.7 hPa West 15.6 km/h 15.6 km/h 57 % 0 mm 0.0 W/m2 CLR
02:36 -4.7 °C -9.7 °C 34405.1 hPa WNW 20.9 km/h 20.9 km/h 57 % 0 mm 0.0 W/m2 CLR
02:41 -4.7 °C -9.7 °C 34405.1 hPa West 23.8 km/h 23.8 km/h 57 % 0 mm 0.0 W/m2 CLR
02:46 -4.8 °C -9.6 °C 34405.1 hPa West 18.2 km/h 18.2 km/h 58 % 0 mm 0.0 W/m2 CLR
02:51 -4.8 °C -9.7 °C 34418.7 hPa West 23.8 km/h 23.8 km/h 58 % 0 mm 0.0 W/m2 CLR
02:56 -4.8 °C -9.7 °C 34418.7 hPa WSW 20.9 km/h 20.9 km/h 58 % 0 mm 0.0 W/m2 CLR
03:01 -4.9 °C -9.7 °C 34418.7 hPa West 20.9 km/h 20.9 km/h 58 % 0 mm 0.0 W/m2 CLR
03:06 -4.9 °C -9.7 °C 34418.7 hPa West 23.8 km/h 23.8 km/h 58 % 0 mm 0.0 W/m2 CLR
03:11 -4.9 °C -9.8 °C 34418.7 hPa WSW 17.9 km/h 17.9 km/h 58 % 0 mm 0.0 W/m2 CLR
03:16 -4.9 °C -9.8 °C 34418.7 hPa WNW 15.6 km/h 15.6 km/h 58 % 0 mm 0.0 W/m2 CLR
03:21 -4.9 °C -9.8 °C 34418.7 hPa WSW 15 km/h 15 km/h 58 % 0 mm 0.0 W/m2 CLR
03:26 -4.9 °C -9.6 °C 34418.7 hPa WSW 15 km/h 15 km/h 59 % 0 mm 0.0 W/m2 CLR
03:31 -4.9 °C -9.7 °C 34405.1 hPa SW 9 km/h 9 km/h 59 % 0 mm 0.0 W/m2 CLR
03:36 -5 °C -9.7 °C 34405.1 hPa West 18.2 km/h 18.2 km/h 59 % 0 mm 0.0 W/m2 CLR
03:41 -5.1 °C -9.7 °C 34405.1 hPa WSW 11.9 km/h 11.9 km/h 59 % 0 mm 0.0 W/m2 CLR
03:46 -5.1 °C -9.8 °C 34405.1 hPa WSW 3.1 km/h 3.1 km/h 59 % 0 mm 0.0 W/m2 CLR
03:51 -5.1 °C -9.8 °C 34395 hPa WSW 17.9 km/h 17.9 km/h 59 % 0 mm 0.0 W/m2 CLR
03:56 -5.1 °C -9.8 °C 34395 hPa Calm     59 % 0 mm 0.0 W/m2 CLR
04:01 -5.2 °C -9.7 °C 34395 hPa SW 11.9 km/h 11.9 km/h 60 % 0 mm 0.0 W/m2 CLR
04:06 -5.2 °C -9.7 °C 34395 hPa WSW 9 km/h 9 km/h 60 % 0 mm 0.0 W/m2 CLR
04:07 -5.2 °C -9.7 °C 34395 hPa WSW 9 km/h 9 km/h 60 % 0 mm 0.0 W/m2 CLR
04:12 -5.2 °C -9.8 °C 34384.8 hPa Calm     60 % 0 mm 0.0 W/m2 CLR
04:17 -5.2 °C -9.8 °C 34384.8 hPa Calm     60 % 0 mm 0.0 W/m2 CLR
04:22 -5.2 °C -9.8 °C 34395 hPa Calm     60 % 0 mm 0.0 W/m2 CLR
04:27 -5.3 °C -9.7 °C 34395 hPa Calm     61 % 0 mm 0.0 W/m2 CLR
04:32 -5.3 °C -9.7 °C 34384.8 hPa Calm     61 % 0 mm 0.0 W/m2 CLR
04:37 -5.3 °C -9.7 °C 34384.8 hPa Calm     61 % 0 mm 0.0 W/m2 CLR
04:42 -5.3 °C -9.7 °C 34384.8 hPa Calm     61 % 0 mm 0.0 W/m2 CLR
04:47 -5.3 °C -9.7 °C 34384.8 hPa Calm     61 % 0 mm 0.0 W/m2 CLR
04:52 -5.3 °C -9.7 °C 34395 hPa West 15 km/h 15 km/h 61 % 0 mm 0.0 W/m2 CLR
05:02 -5.2 °C -9.6 °C 34384.8 hPa West 11.9 km/h 11.9 km/h 61 % 0 mm 0.0 W/m2 CLR
05:07 -5.2 °C -9.6 °C 34384.8 hPa West 5.1 km/h 5.1 km/h 61 % 0 mm 0.0 W/m2 CLR
05:12 -5.2 °C -9.6 °C 34371.3 hPa Calm     61 % 0 mm 0.0 W/m2 CLR
05:17 -5.2 °C -9.6 °C 34371.3 hPa Calm     61 % 0 mm 0.0 W/m2 CLR
05:22 -5.2 °C -9.6 °C 34371.3 hPa Calm     61 % 0 mm 0.0 W/m2 CLR
05:27 -5.2 °C -9.6 °C 34371.3 hPa Calm     61 % 0 mm 0.0 W/m2 CLR
05:32 -5.2 °C -9.6 °C 34384.8 hPa Calm     61 % 0 mm 0.0 W/m2 CLR
05:37 -5.2 °C -9.6 °C 34384.8 hPa Calm     61 % 0 mm 0.0 W/m2 CLR
05:42 -5.3 °C -9.7 °C 34384.8 hPa Calm     61 % 0 mm 0.0 W/m2 CLR
05:47 -5.3 °C -9.7 °C 34384.8 hPa Calm     61 % 0 mm 0.0 W/m2 CLR
05:52 -5.3 °C -9.7 °C 34384.8 hPa Calm     61 % 0 mm 0.0 W/m2 CLR
05:57 -5.4 °C -9.8 °C 34384.8 hPa WNW 10.3 km/h 10.3 km/h 61 % 0 mm 0.0 W/m2 CLR
06:02 -5.4 °C -9.6 °C 34395 hPa Calm     62 % 0 mm 0.0 W/m2 CLR
06:07 -5.4 °C -9.7 °C 34395 hPa WNW 11.9 km/h 11.9 km/h 62 % 0 mm 0.0 W/m2 CLR
06:12 -5.4 °C -9.7 °C 34395 hPa WNW 9 km/h 9 km/h 62 % 0 mm 0.0 W/m2 CLR
06:17 -5.4 °C -9.7 °C 34395 hPa Calm     62 % 0 mm 0.0 W/m2 CLR
06:22 -5.5 °C -9.6 °C 34395 hPa NW 6 km/h 6 km/h 63 % 0 mm 0.0 W/m2 OVC
06:27 -5.5 °C -9.6 °C 34395 hPa Calm     63 % 0 mm 0.0 W/m2 OVC
06:32 -5.5 °C -9.6 °C 34395 hPa NW 6 km/h   63 % 0 mm 0.0 W/m2 OVC
06:37 -5.6 °C -9.7 °C 34395 hPa Calm     63 % 0 mm 0.0 W/m2 OVC
06:42 -5.6 °C -9.7 °C 34395 hPa Calm     63 % 0 mm 5.0 W/m2 OVC
06:47 -5.6 °C -9.7 °C 34395 hPa Calm     63 % 0 mm 5.0 W/m2 OVC
06:52 -5.6 °C -9.7 °C 34395 hPa Calm     63 % 0 mm 9.0 W/m2 BKN
06:57 -5.6 °C -9.7 °C 34395 hPa Calm     63 % 0 mm 14.0 W/m2 BKN
07:02 -5.6 °C -9.7 °C 34395 hPa Calm     63 % 0 mm 21.0 W/m2 BKN
07:07 -5.6 °C -9.6 °C 34405.1 hPa Calm     64 % 0 mm 30.0 W/m2 BKN
07:13 -5.7 °C -9.6 °C 34405.1 hPa Calm     64 % 0 mm 32.0 W/m2 BKN
07:18 -5.7 °C -9.6 °C 34405.1 hPa Calm     64 % 0 mm 35.0 W/m2 BKN
07:23 -5.7 °C -9.6 °C 34405.1 hPa West 10.3 km/h 10.3 km/h 64 % 0 mm 47.0 W/m2 SCT
07:28 -5.7 °C -9.6 °C 34405.1 hPa NW 15 km/h 15 km/h 64 % 0 mm 62.0 W/m2 SCT
07:33 -5.7 °C -9.6 °C 34405.1 hPa Calm     64 % 0 mm 83.0 W/m2 SCT
07:38 -5.6 °C -9.6 °C 34405.1 hPa Calm     64 % 0 mm 91.0 W/m2 FEW
07:43 -5.6 °C -9.6 °C 34418.7 hPa Calm     64 % 0 mm 102.0 W/m2 CLR
07:48 -5.5 °C -9.4 °C 34418.7 hPa Calm     64 % 0 mm 118.0 W/m2 CLR
07:53 -5.4 °C -9.6 °C 34418.7 hPa Calm     63 % 0 mm 137.0 W/m2 CLR
07:58 -5.3 °C -9.4 °C 34418.7 hPa Calm     63 % 0 mm 171.0 W/m2 CLR
08:03 -5.3 °C -9.6 °C 34418.7 hPa NW 9 km/h   62 % 0 mm 185.0 W/m2 CLR
08:08 -5.2 °C -9.4 °C 34418.7 hPa Calm   8.9 km/h 62 % 0 mm 202.0 W/m2 CLR
08:13 -5.2 °C -9.5 °C 34418.7 hPa NW 20.9 km/h 20.9 km/h 62 % 0 mm 216.0 W/m2 CLR
08:18 -5.2 °C -9.5 °C 34418.7 hPa NW 20.9 km/h 20.9 km/h 62 % 0 mm 199.0 W/m2 CLR
08:23 -5.2 °C -9.6 °C 34428.8 hPa North 20.9 km/h 20.9 km/h 61 % 0 mm 257.0 W/m2 CLR
08:28 -5.1 °C -9.5 °C 34428.8 hPa NW 17.9 km/h 17.9 km/h 61 % 0 mm 153.0 W/m2 CLR
08:33 -5.2 °C -9.6 °C 34418.7 hPa WNW 15 km/h 15 km/h 61 % 0 mm 139.0 W/m2 CLR
08:38 -5.2 °C -9.6 °C 34428.8 hPa WNW 10.3 km/h 10.3 km/h 61 % 0 mm 190.0 W/m2 CLR
08:43 -5.1 °C -9.5 °C 34418.7 hPa NW 9 km/h 9 km/h 61 % 0 mm 306.0 W/m2 CLR
08:48 -4.9 °C -9.5 °C 34418.7 hPa West 7.7 km/h 7.7 km/h 60 % 0 mm 299.0 W/m2 CLR
08:53 -4.9 °C -9.6 °C 34418.7 hPa Calm     59 % 0 mm 338.0 W/m2 CLR
08:58 -4.9 °C -9.5 °C 34418.7 hPa NW 2.6 km/h 2.6 km/h 60 % 0 mm 192.0 W/m2 CLR
09:03 -4.8 °C -9.3 °C 34428.8 hPa Calm     60 % 0 mm 373.0 W/m2 CLR
09:08 -4.6 °C -9.3 °C 34418.7 hPa NNW 11.9 km/h 11.9 km/h 59 % 0 mm 359.0 W/m2 CLR
09:13 -4.5 °C -9.4 °C 34418.7 hPa NNW 18.2 km/h 18.2 km/h 58 % 0 mm 385.0 W/m2 CLR
09:18 -4.4 °C -9.4 °C 34418.7 hPa NW 9 km/h 9 km/h 57 % 0 mm 387.0 W/m2 CLR
09:23 -4.4 °C -9.4 °C 34418.7 hPa Calm     57 % 0 mm 390.0 W/m2 CLR
09:28 -4.3 °C -9.3 °C 34418.7 hPa Calm     57 % 0 mm 401.0 W/m2 CLR
09:33 -4.2 °C -9.4 °C 34418.7 hPa NW 3.1 km/h 3.1 km/h 56 % 0 mm 417.0 W/m2 CLR
09:38 -4.1 °C -9.3 °C 34418.7 hPa Calm     56 % 0 mm 436.0 W/m2 CLR
09:43 -3.9 °C -9.3 °C 34418.7 hPa NW 17.9 km/h 17.9 km/h 55 % 0 mm 462.0 W/m2 CLR
09:48 -3.8 °C -9.3 °C 34418.7 hPa NW 3.1 km/h   54 % 0 mm 519.0 W/m2 CLR
09:53 -3.7 °C -9.2 °C 34418.7 hPa Calm   0.3 km/h 54 % 0 mm 613.0 W/m2 CLR
09:58 -3.5 °C -9.2 °C 34405.1 hPa Calm     53 % 0 mm 345.0 W/m2 CLR
10:03 -3.4 °C -9.3 °C 34405.1 hPa Calm     52 % 0 mm 250.0 W/m2 CLR
10:08 -3.4 °C -9.3 °C 34405.1 hPa Calm     52 % 0 mm 239.0 W/m2 CLR
10:13 -3.5 °C -9.4 °C 34405.1 hPa Calm     52 % 0 mm 297.0 W/m2 CLR
10:14 -3.5 °C -9.4 °C 34405.1 hPa Calm     52 % 0 mm 230.0 W/m2 CLR
10:19 -3.6 °C -9.4 °C 34405.1 hPa Calm     52 % 0 mm 169.0 W/m2 CLR
10:24 -3.6 °C -9.3 °C 34405.1 hPa Calm     53 % 0 mm 232.0 W/m2 CLR
10:29 -3.6 °C -9.3 °C 34405.1 hPa Calm     53 % 0 mm 260.0 W/m2 CLR
10:34 -3.7 °C -9.3 °C 34395 hPa Calm     53 % 0 mm 227.0 W/m2 CLR
10:40 -3.6 °C -9.3 °C 34395 hPa Calm     53 % 0 mm 274.0 W/m2 CLR
10:45 -3.4 °C -9.3 °C 34395 hPa Calm     52 % 0 mm 489.0 W/m2 CLR
10:50 -3.2 °C -9.3 °C 34384.8 hPa Calm     51 % 0 mm 478.0 W/m2 CLR
10:55 -3.2 °C -9.4 °C 34384.8 hPa East 3.1 km/h   50 % 0 mm 308.0 W/m2 CLR
11:00 -3.3 °C -9.4 °C 34384.8 hPa Calm     51 % 0 mm 334.0 W/m2 CLR
11:05 -3.2 °C -9.3 °C 34395 hPa Calm     51 % 0 mm 687.0 W/m2 CLR
11:10 -3 °C -9.3 °C 34395 hPa Calm     50 % 0 mm 677.0 W/m2 CLR
11:15 -2.8 °C -9.1 °C 34395 hPa Calm     50 % 0 mm 698.0 W/m2 CLR
11:20 -2.6 °C -9.1 °C 34395 hPa Calm     49 % 0 mm 710.0 W/m2 CLR
11:25 -2.3 °C -9.2 °C 34395 hPa Calm     47 % 0 mm 724.0 W/m2 CLR
11:30 -2.2 °C -9.1 °C 34395 hPa ENE 3.1 km/h   47 % 0 mm 742.0 W/m2 CLR
11:35 -2.1 °C -9.2 °C 34395 hPa NNW 3.1 km/h   46 % 0 mm 770.0 W/m2 CLR
11:40 -2.1 °C -9.1 °C 34395 hPa ENE 3.1 km/h 3.1 km/h 46 % 0 mm 819.0 W/m2 CLR
11:45 -2 °C -9.1 °C 34395 hPa Calm     46 % 0 mm 888.0 W/m2 CLR
11:50 -1.9 °C -9 °C 34384.8 hPa Calm   0.3 km/h 46 % 0 mm 438.0 W/m2 CLR
11:55 -1.9 °C -9 °C 34384.8 hPa East 2.6 km/h 2.6 km/h 46 % 0 mm 445.0 W/m2 CLR
12:00 -2.1 °C -9.1 °C 34384.8 hPa ESE 3.1 km/h 3.1 km/h 46 % 0 mm 454.0 W/m2 CLR
12:05 -2.1 °C -9 °C 34384.8 hPa Calm     47 % 0 mm 357.0 W/m2 CLR
12:10 -2.1 °C -9 °C 34384.8 hPa NE 5.1 km/h 5.1 km/h 47 % 0 mm 411.0 W/m2 CLR
12:15 -1.9 °C -8.8 °C 34384.8 hPa Calm     47 % 0 mm 411.0 W/m2 CLR
12:20 -1.8 °C -8.8 °C 34384.8 hPa NNE 9 km/h 9 km/h 46 % 0 mm 413.0 W/m2 CLR
12:25 -1.7 °C -8.8 °C 34395 hPa NW 5.1 km/h 5.1 km/h 46 % 0 mm 756.0 W/m2 CLR
12:30 -1.6 °C -8.9 °C 34395 hPa Calm     45 % 0 mm 441.0 W/m2 CLR
12:35 -1.6 °C -8.8 °C 34384.8 hPa Calm     45 % 0 mm 316.0 W/m2 CLR
12:40 -1.6 °C -8.8 °C 34384.8 hPa Calm     45 % 0 mm 230.0 W/m2 CLR
12:45 -1.7 °C -8.9 °C 34371.3 hPa ENE 26.9 km/h 26.9 km/h 45 % 0 mm 297.0 W/m2 CLR
12:50 -1.8 °C -8.8 °C 34371.3 hPa North 3.1 km/h 3.1 km/h 46 % 0 mm 378.0 W/m2 CLR
12:55 -1.7 °C -8.8 °C 34371.3 hPa NE 9 km/h 9 km/h 46 % 0 mm 480.0 W/m2 CLR
13:00 -1.7 °C -8.8 °C 34371.3 hPa ENE 5.1 km/h 5.1 km/h 46 % 0 mm 418.0 W/m2 CLR
13:05 -1.7 °C -8.8 °C 34361.1 hPa Calm     46 % 0 mm 385.0 W/m2 CLR
13:10 -1.6 °C -8.7 °C 34361.1 hPa ESE 12.9 km/h 12.9 km/h 46 % 0 mm 476.0 W/m2 CLR
13:15 -1.5 °C -8.6 °C 34361.1 hPa ESE 18.2 km/h 18.2 km/h 46 % 0 mm 519.0 W/m2 CLR
13:18 -1.4 °C -8.6 °C 34361.1 hPa East 20.9 km/h 20.9 km/h 46 % 0 mm 519.0 W/m2 CLR
13:23 -1.5 °C -8.6 °C 34361.1 hPa ENE 9 km/h 9 km/h 46 % 0 mm 362.0 W/m2 CLR
13:28 -1.4 °C -8.5 °C 34361.1 hPa SE 9 km/h   46 % 0 mm 401.0 W/m2 CLR
13:33 -1.3 °C -8.4 °C 34361.1 hPa Calm     46 % 0 mm 728.0 W/m2 CLR
13:38 -1.2 °C -8.3 °C 34347.6 hPa NE 15 km/h 15 km/h 46 % 0 mm 450.0 W/m2 CLR
13:43 -1.1 °C -8.1 °C 34347.6 hPa East 17.9 km/h 17.9 km/h 47 % 0 mm 330.0 W/m2 CLR
13:48 -1.1 °C -8.1 °C 34337.4 hPa ENE 15 km/h 15 km/h 47 % 0 mm 388.0 W/m2 CLR
13:53 -1 °C -7.8 °C 34337.4 hPa ENE 17.9 km/h 17.9 km/h 48 % 0 mm 431.0 W/m2 CLR
13:58 -0.7 °C -7.9 °C 34337.4 hPa East 29.8 km/h 29.8 km/h 46 % 0 mm 981.0 W/m2 CLR
14:03 -0.7 °C -7.8 °C 34337.4 hPa ENE 25.9 km/h 25.9 km/h 46 % 0 mm 965.0 W/m2 CLR
14:08 -0.5 °C -7.7 °C 34337.4 hPa East 32.8 km/h 32.8 km/h 46 % 0 mm 904.0 W/m2 CLR
14:13 -0.4 °C -7.7 °C 34337.4 hPa ENE 32.8 km/h 32.8 km/h 46 % 0 mm 951.0 W/m2 CLR
14:18 -0.2 °C -7.3 °C 34327.3 hPa NE 23.8 km/h 23.8 km/h 47 % 0 mm 882.0 W/m2 CLR
14:23 0 °C -7.4 °C 34327.3 hPa East 20.9 km/h 20.9 km/h 45 % 0 mm 949.0 W/m2 CLR
14:28 -0.1 °C -7.9 °C 34313.7 hPa SE 29.8 km/h 29.8 km/h 43 % 0 mm 888.0 W/m2 CLR
14:33 0.2 °C -7.7 °C 34313.7 hPa ESE 32.8 km/h 32.8 km/h 43 % 0 mm 846.0 W/m2 CLR
14:38 0.3 °C -7.4 °C 34303.6 hPa ESE 29.8 km/h 29.8 km/h 44 % 0 mm 601.0 W/m2 CLR
14:43 0.1 °C -7.6 °C 34303.6 hPa East 29.8 km/h 29.8 km/h 44 % 0 mm 819.0 W/m2 CLR
14:48 0.2 °C -7.6 °C 34303.6 hPa East 35.7 km/h 35.7 km/h 44 % 0 mm 872.0 W/m2 CLR
14:53 0.2 °C -7.3 °C 34303.6 hPa East 29.8 km/h 29.8 km/h 45 % 0 mm 788.0 W/m2 CLR
14:58 0 °C -7.9 °C 34293.4 hPa East 32.8 km/h 32.8 km/h 43 % 0 mm 422.0 W/m2 CLR
15:03 -0.1 °C -7.6 °C 34293.4 hPa ESE 35.7 km/h 35.7 km/h 45 % 0 mm 359.0 W/m2 CLR
15:08 -0.2 °C -7.6 °C 34303.6 hPa ESE 38.8 km/h 38.8 km/h 45 % 0 mm 327.0 W/m2 CLR
15:13 -0.3 °C -7.5 °C 34293.4 hPa East 29.8 km/h 29.8 km/h 46 % 0 mm 330.0 W/m2 CLR
15:18 -0.3 °C -7.1 °C 34293.4 hPa ESE 26.9 km/h 26.9 km/h 48 % 0 mm 336.0 W/m2 CLR
15:23 -0.3 °C -6.9 °C 34293.4 hPa ESE 20.8 km/h 20.8 km/h 49 % 0 mm 278.0 W/m2 CLR
15:28 -0.4 °C -7.3 °C 34293.4 hPa ESE 20.9 km/h 20.9 km/h 48 % 0 mm 234.0 W/m2 CLR
15:29 -0.4 °C -7.1 °C 34293.4 hPa East 23.3 km/h 23.3 km/h 49 % 0 mm 234.0 W/m2 CLR
15:34 -0.6 °C -7.2 °C 34293.4 hPa East 20.9 km/h 20.9 km/h 49 % 0 mm 269.0 W/m2 CLR
15:39 -0.7 °C -6.9 °C 34293.4 hPa ESE 32.8 km/h 32.8 km/h 51 % 0 mm 334.0 W/m2 CLR
15:44 -0.8 °C -6.9 °C 34293.4 hPa ESE 23.8 km/h 23.8 km/h 52 % 0 mm 427.0 W/m2 CLR
15:49 -0.7 °C -6.7 °C 34293.4 hPa ESE 23.8 km/h 23.8 km/h 53 % 0 mm 468.0 W/m2 CLR
15:54 -0.8 °C -6.6 °C 34293.4 hPa East 29.8 km/h 29.8 km/h 54 % 0 mm 417.0 W/m2 CLR
15:59 -0.7 °C -6.6 °C 34279.9 hPa East 23.8 km/h 23.8 km/h 53 % 0 mm 501.0 W/m2 CLR
16:04 -0.7 °C -6.6 °C 34279.9 hPa ESE 20.9 km/h 20.9 km/h 53 % 0 mm 413.0 W/m2 CLR
16:09 -0.6 °C -6.5 °C 34269.7 hPa ENE 23.8 km/h 23.8 km/h 53 % 0 mm 659.0 W/m2 CLR
16:14 -0.6 °C -6.7 °C 34269.7 hPa East 29.8 km/h 29.8 km/h 52 % 0 mm 369.0 W/m2 CLR
16:19 -0.6 °C -6.7 °C 34256.2 hPa East 35.7 km/h 35.7 km/h 52 % 0 mm 332.0 W/m2 CLR
16:24 -0.5 °C -6.8 °C 34256.2 hPa SE 32.8 km/h 32.8 km/h 51 % 0 mm 323.0 W/m2 CLR
16:29 -0.3 °C -6.9 °C 34256.2 hPa SE 20.8 km/h 27.5 km/h 49 % 0 mm 830.0 W/m2 CLR
16:34 -0.1 °C -7 °C 34246 hPa SE 35.7 km/h 35.7 km/h 48 % 0 mm 253.0 W/m2 CLR
16:39 -0.2 °C -7 °C 34246 hPa ESE 29.8 km/h 29.8 km/h 48 % 0 mm 243.0 W/m2 CLR
16:44 0.1 °C -7.2 °C 34246 hPa ESE 38.8 km/h 38.8 km/h 46 % 0 mm 744.0 W/m2 CLR
16:49 -0.1 °C -7.3 °C 34235.8 hPa SSE 29.8 km/h 29.8 km/h 46 % 0 mm 302.0 W/m2 CLR
16:54 -0.2 °C -7.4 °C 34246 hPa SE 47.6 km/h 47.6 km/h 46 % 0 mm 171.0 W/m2 CLR
16:59 -0.3 °C -7.2 °C 34246 hPa SE 38.8 km/h 38.8 km/h 48 % 0 mm 127.0 W/m2 CLR
17:04 -0.3 °C -7.4 °C 34246 hPa SE 29.8 km/h 29.8 km/h 47 % 0 mm 98.0 W/m2 CLR
17:09 -0.4 °C -7.3 °C 34246 hPa SE 29.8 km/h 29.8 km/h 48 % 0 mm 86.0 W/m2 CLR
17:14 -0.6 °C -7.4 °C 34235.8 hPa SSE 35.7 km/h 35.7 km/h 48 % 0 mm 88.0 W/m2 CLR
17:19 -0.7 °C -7.6 °C 34235.8 hPa SSE 41.7 km/h 41.7 km/h 48 % 0 mm 81.0 W/m2 CLR
17:24 -0.7 °C -7.4 °C 34246 hPa SSE 38.8 km/h 38.8 km/h 48 % 0 mm 54.0 W/m2 FEW
17:29 -0.7 °C -7.5 °C 34256.2 hPa ESE 31.1 km/h 31.1 km/h 48 % 0 mm 42.0 W/m2 SCT
17:34 -0.8 °C -7.6 °C 34246 hPa SE 20.9 km/h 20.9 km/h 48 % 0 mm 49.0 W/m2 SCT
17:39 -0.9 °C -7.7 °C 34256.2 hPa SE 23.8 km/h 23.8 km/h 48 % 0 mm 42.0 W/m2 SCT
17:44 -1 °C -7.6 °C 34269.7 hPa South 17.9 km/h 17.9 km/h 49 % 0 mm 44.0 W/m2 SCT
17:49 -1.1 °C -7.7 °C 34269.7 hPa South 23.8 km/h 23.8 km/h 49 % 0 mm 47.0 W/m2 BKN
17:54 -1.2 °C -7.6 °C 34269.7 hPa SSE 9 km/h   50 % 0 mm 67.0 W/m2 SCT
17:59 -1.3 °C -7.3 °C 34269.7 hPa Calm     52 % 0 mm 95.0 W/m2 SCT
18:04 -1.4 °C -7.3 °C 34269.7 hPa Calm     53 % 0 mm 123.0 W/m2 CLR
18:09 -1.8 °C -7.1 °C 34279.9 hPa NNW 53.6 km/h 53.6 km/h 57 % 0 mm 128.0 W/m2 CLR
18:14 -2.7 °C -7.1 °C 34279.9 hPa North 59.5 km/h 59.5 km/h 62 % 0 mm 127.0 W/m2 CLR
18:16 -2.7 °C -7.1 °C 34279.9 hPa NNE 33.6 km/h 33.6 km/h 62 % 0 mm 127.0 W/m2 CLR
18:21 -2.9 °C -7 °C 34269.7 hPa NNE 44.7 km/h 44.7 km/h 64 % 0 mm 132.0 W/m2 CLR
18:26 -2.8 °C -6.9 °C 34269.7 hPa ENE 9 km/h 9 km/h 64 % 0 mm 163.0 W/m2 CLR
18:31 -2.7 °C -7 °C 34269.7 hPa ENE 3.1 km/h   63 % 0 mm 206.0 W/m2 CLR
18:36 -2.6 °C -7 °C 34269.7 hPa Calm     62 % 0 mm 204.0 W/m2 CLR
18:41 -2.3 °C -7.1 °C 34269.7 hPa ESE 23.3 km/h 23.3 km/h 59 % 0 mm 265.0 W/m2 CLR
18:46 -2.1 °C -7.3 °C 34269.7 hPa ESE 26.9 km/h 26.9 km/h 57 % 0 mm 195.0 W/m2 CLR
18:51 -2 °C -7.2 °C 34256.2 hPa ESE 26.9 km/h 26.9 km/h 57 % 0 mm 255.0 W/m2 CLR
18:56 -2 °C -7.3 °C 34256.2 hPa ESE 32.8 km/h 32.8 km/h 56 % 0 mm 394.0 W/m2 CLR
19:01 -2 °C -7.3 °C 34246 hPa ESE 26.9 km/h 26.9 km/h 56 % 0 mm 174.0 W/m2 CLR
19:06 -1.9 °C -7.4 °C 34246 hPa ESE 32.8 km/h 32.8 km/h 55 % 0 mm 376.0 W/m2 CLR
19:11 -1.8 °C -7.3 °C 34246 hPa ESE 20.9 km/h 20.9 km/h 55 % 0 mm 366.0 W/m2 CLR
19:16 -1.7 °C -7.6 °C 34235.8 hPa ESE 33.6 km/h 33.6 km/h 53 % 0 mm 345.0 W/m2 CLR
19:21 -1.8 °C -7.6 °C 34235.8 hPa ESE 28.5 km/h 28.5 km/h 53 % 0 mm 278.0 W/m2 CLR
19:26 -1.9 °C -7.6 °C 34222.3 hPa ESE 29.8 km/h 29.8 km/h 54 % 0 mm 62.0 W/m2 CLR
19:31 -1.9 °C -7.4 °C 34222.3 hPa SE 33.6 km/h 33.6 km/h 55 % 0 mm 70.0 W/m2 FEW
19:36 -2.1 °C -7.6 °C 34222.3 hPa SE 26.9 km/h 26.9 km/h 55 % 0 mm 95.0 W/m2 FEW
19:41 -2.1 °C -7.6 °C 34212.1 hPa SE 28.5 km/h 28.5 km/h 55 % 0 mm 63.0 W/m2 FEW
19:46 -2.2 °C -7.6 °C 34212.1 hPa ESE 23.8 km/h 23.8 km/h 56 % 0 mm 54.0 W/m2 FEW
19:51 -2.3 °C -7.4 °C 34222.3 hPa SE 15 km/h 15 km/h 57 % 0 mm 58.0 W/m2 SCT
19:56 -2.3 °C -7.4 °C 34212.1 hPa SSE 15.6 km/h 15.6 km/h 57 % 0 mm 60.0 W/m2 SCT
20:01 -2.3 °C -7.6 °C 34212.1 hPa SE 29.8 km/h 29.8 km/h 56 % 0 mm 60.0 W/m2 SCT
20:06 -2.3 °C -7.6 °C 34212.1 hPa SE 29.8 km/h 29.8 km/h 56 % 0 mm 62.0 W/m2 SCT
20:11 -2.3 °C -7.6 °C 34212.1 hPa SE 23.8 km/h 23.8 km/h 56 % 0 mm 58.0 W/m2 SCT
20:16 -2.3 °C -7.8 °C 34212.1 hPa ESE 23.8 km/h 23.8 km/h 55 % 0 mm 53.0 W/m2 SCT
20:21 -2.4 °C -7.7 °C 34212.1 hPa SE 29.8 km/h 29.8 km/h 56 % 0 mm 53.0 W/m2 SCT
20:26 -2.4 °C -7.7 °C 34222.3 hPa SE 9 km/h 9 km/h 56 % 0 mm 51.0 W/m2 SCT
20:31 -2.4 °C -7.8 °C 34222.3 hPa SE 26.9 km/h 26.9 km/h 56 % 0 mm 40.0 W/m2 SCT
20:36 -2.6 °C -7.7 °C 34222.3 hPa SE 17.9 km/h 17.9 km/h 57 % 0 mm 30.0 W/m2 BKN
20:41 -2.6 °C -7.7 °C 34222.3 hPa SSE 15 km/h 15 km/h 57 % 0 mm 26.0 W/m2 BKN
20:42 -2.6 °C -7.7 °C 34235.8 hPa SE 12.9 km/h 12.9 km/h 57 % 0 mm 25.0 W/m2 BKN
20:47 -2.6 °C -7.7 °C 34235.8 hPa SSE 17.9 km/h 17.9 km/h 57 % 0 mm 21.0 W/m2 BKN
20:52 -2.6 °C -7.7 °C 34235.8 hPa SSE 23.8 km/h 23.8 km/h 57 % 0 mm 18.0 W/m2 BKN
20:57 -2.7 °C -7.8 °C 34235.8 hPa SE 20.9 km/h 20.9 km/h 57 % 0 mm 16.0 W/m2 BKN
21:02 -2.7 °C -7.7 °C 34235.8 hPa SE 20.9 km/h 20.9 km/h 58 % 0 mm 14.0 W/m2 BKN
21:07 -2.7 °C -7.7 °C 34222.3 hPa ESE 17.9 km/h 17.9 km/h 58 % 0 mm 12.0 W/m2 BKN
21:12 -2.8 °C -7.6 °C 34235.8 hPa SE 11.9 km/h 11.9 km/h 59 % 0 mm 9.0 W/m2 BKN
21:17 -2.8 °C -7.7 °C 34235.8 hPa ESE 10.3 km/h 10.3 km/h 59 % 0 mm 7.0 W/m2 BKN
21:22 -2.9 °C -7.7 °C 34222.3 hPa ESE 12.9 km/h 12.9 km/h 59 % 0 mm 5.0 W/m2 OVC
21:27 -2.9 °C -7.8 °C 34222.3 hPa ESE 15 km/h 15 km/h 59 % 0 mm 0.0 W/m2 OVC
21:32 -3.1 °C -7.7 °C 34222.3 hPa ESE 12.9 km/h 12.9 km/h 60 % 0 mm 0.0 W/m2 OVC
21:37 -3.1 °C -7.9 °C 34222.3 hPa Calm     59 % 0 mm 0.0 W/m2 OVC
21:42 -3.2 °C -7.9 °C 34222.3 hPa East 10.3 km/h 10.3 km/h 59 % 0 mm 0.0 W/m2 OVC
21:47 -3.2 °C -8 °C 34222.3 hPa Calm     59 % 0 mm 0.0 W/m2 CLR
21:52 -3.2 °C -8.1 °C 34235.8 hPa Calm     59 % 0 mm 0.0 W/m2 CLR
21:57 -3.3 °C -8.2 °C 34235.8 hPa ESE 9 km/h 9 km/h 58 % 0 mm 0.0 W/m2 CLR
22:02 -3.3 °C -8.4 °C 34235.8 hPa ESE 12.9 km/h 12.9 km/h 57 % 0 mm 0.0 W/m2 CLR
22:07 -3.3 °C -8.5 °C 34235.8 hPa East 15 km/h 15 km/h 56 % 0 mm 0.0 W/m2 CLR
22:13 -3.3 °C -8.5 °C 34235.8 hPa ESE 11.9 km/h 11.9 km/h 56 % 0 mm 0.0 W/m2 CLR
22:17 -3.3 °C -8.4 °C 34246 hPa East 20.9 km/h 20.9 km/h 57 % 0 mm 0.0 W/m2 CLR
22:23 -3.4 °C -8.4 °C 34246 hPa ENE 10.3 km/h 10.3 km/h 58 % 0 mm 0.0 W/m2 CLR
22:28 -3.5 °C -8.4 °C 34256.2 hPa Calm   0.8 km/h 58 % 0 mm 0.0 W/m2 CLR
22:33 -3.6 °C -8.7 °C 34269.7 hPa Calm     57 % 0 mm 0.0 W/m2 CLR
22:38 -3.6 °C -8.8 °C 34293.4 hPa Calm     56 % 0 mm 0.0 W/m2 CLR
22:43 -3.6 °C -8.8 °C 34293.4 hPa Calm     56 % 0 mm 0.0 W/m2 CLR
22:48 -3.6 °C -8.5 °C 34279.9 hPa East 9 km/h 9 km/h 58 % 0 mm 0.0 W/m2 CLR
22:53 -3.7 °C -8.4 °C 34279.9 hPa SE 9 km/h 9 km/h 59 % 0 mm 0.0 W/m2 CLR
22:58 -3.8 °C -8.2 °C 34279.9 hPa SE 9 km/h 9 km/h 61 % 0 mm 0.0 W/m2 CLR
23:03 -3.8 °C -8.8 °C 34293.4 hPa SE 29.8 km/h 29.8 km/h 57 % 0 mm 0.0 W/m2 CLR
23:08 -3.8 °C -8.8 °C 34293.4 hPa SE 23.8 km/h 23.8 km/h 57 % 0 mm 0.0 W/m2 CLR
23:13 -3.8 °C -8.7 °C 34293.4 hPa SE 23.8 km/h 23.8 km/h 58 % 0 mm 0.0 W/m2 CLR
23:18 -3.9 °C -8.8 °C 34279.9 hPa SE 17.9 km/h 17.9 km/h 58 % 0 mm 0.0 W/m2 CLR
23:23 -3.9 °C -8.8 °C 34279.9 hPa SE 17.9 km/h 17.9 km/h 58 % 0 mm 0.0 W/m2 CLR
23:28 -4 °C -9.1 °C 34279.9 hPa SE 18.2 km/h 18.2 km/h 57 % 0 mm 0.0 W/m2 CLR
23:33 -4 °C -9.1 °C 34279.9 hPa SE 11.9 km/h 11.9 km/h 57 % 0 mm 0.0 W/m2 CLR
23:38 -4.1 °C -9.1 °C 34269.7 hPa ESE 10.3 km/h 10.3 km/h 57 % 0 mm 0.0 W/m2 CLR
23:43 -4.1 °C -9.2 °C 34269.7 hPa East 3.1 km/h   57 % 0 mm 0.0 W/m2 CLR
23:48 -4.1 °C -9.2 °C 34269.7 hPa Calm     57 % 0 mm 0.0 W/m2 CLR
23:53 -4.2 °C -9.1 °C 34269.7 hPa Calm     58 % 0 mm 0.0 W/m2 CLR
23:58 -4.2 °C -9.3 °C 34279.9 hPa Calm     57 % 0 mm 0.0 W/m2 CLR
Lo Temps de Massalio
Compliments of Weather Underground - 1.25 mb